Time;durP1;ratioP1;P1;durP2;ratioP2;P2;SDS_P1;SDS_P2;PMS_P1;PMS_P2;Temp;Humidity;BMP_temperature;BMP_pressure;BME280_temperature;BME280_humidity;BME280_pressure;Samples;Min_cycle;Max_cycle;Signal;HPM_P1;HPM_P2
2023/07/19 00:02:03;;;;;;;10.77;2.45;;;;;;;;;;4974567;28;20761;-61
2023/07/19 00:04:28;;;;;;;7.68;1.88;;;15.90;99.90;;;;;;4974313;28;20259;-61
2023/07/19 00:06:55;;;;;;;7.55;2.03;;;;;;;;;;4974626;28;20267;-60
2023/07/19 00:09:21;;;;;;;8.48;2.40;;;15.90;99.90;;;;;;4974459;28;20180;-61
2023/07/19 00:11:47;;;;;;;8.80;2.40;;;16.10;99.90;;;;;;4974646;28;20180;-61
2023/07/19 00:14:13;;;;;;;9.25;2.30;;;16.00;99.90;;;;;;4974455;28;20282;-61
2023/07/19 00:16:38;;;;;;;5.70;2.22;;;16.00;99.90;;;;;;4974522;28;20208;-62
2023/07/19 00:19:04;;;;;;;6.28;2.22;;;15.90;99.90;;;;;;4974364;28;20255;-62
2023/07/19 00:21:29;;;;;;;6.43;2.58;;;15.90;99.90;;;;;;4974321;28;20649;-62
2023/07/19 00:23:55;;;;;;;6.90;2.08;;;16.00;99.90;;;;;;4974375;28;20671;-59
2023/07/19 00:26:21;;;;;;;7.57;2.30;;;16.00;99.90;;;;;;4974377;28;20191;-58
2023/07/19 00:28:46;;;;;;;8.63;2.50;;;16.00;99.90;;;;;;4974246;28;20628;-59
2023/07/19 00:31:12;;;;;;;7.22;1.98;;;;;;;;;;4974138;28;20176;-60
2023/07/19 00:33:38;;;;;;;5.35;2.15;;;15.90;99.90;;;;;;4974115;28;20172;-60
2023/07/19 00:36:04;;;;;;;9.68;2.50;;;15.90;99.90;;;;;;4974092;28;20561;-59
2023/07/19 00:38:30;;;;;;;8.35;2.30;;;15.90;99.90;;;;;;4974186;28;20172;-62
2023/07/19 00:40:56;;;;;;;7.63;2.60;;;;;;;;;;4974013;28;20184;-62
2023/07/19 00:43:21;;;;;;;12.20;2.97;;;16.10;99.90;;;;;;4973130;28;20223;-62
2023/07/19 00:45:51;;;;;;;13.00;2.78;;;16.00;99.90;;;;;;4971424;28;20649;-62
2023/07/19 00:48:17;;;;;;;7.97;2.38;;;15.90;99.90;;;;;;4963267;28;20223;-61
2023/07/19 00:50:44;;;;;;;10.70;2.90;;;15.90;99.90;;;;;;4974083;28;20183;-61
2023/07/19 00:53:11;;;;;;;9.05;2.42;;;16.20;99.90;;;;;;4973635;28;20176;-61
2023/07/19 00:55:38;;;;;;;6.30;2.22;;;16.10;99.90;;;;;;4973748;28;20187;-62
2023/07/19 00:58:04;;;;;;;7.25;2.70;;;16.10;99.90;;;;;;4973687;28;20685;-61
2023/07/19 01:00:30;;;;;;;11.57;3.30;;;;;;;;;;4973538;28;20219;-62
2023/07/19 01:02:56;;;;;;;11.98;3.00;;;12.30;99.90;;;;;;4973467;28;20212;-62
2023/07/19 01:05:22;;;;;;;11.35;2.70;;;16.20;99.90;;;;;;4973390;28;20271;-61
2023/07/19 01:07:48;;;;;;;8.65;2.85;;;16.20;99.90;;;;;;4973573;28;20234;-60
2023/07/19 01:10:13;;;;;;;9.13;2.72;;;16.30;99.90;;;;;;4973494;28;20176;-62
2023/07/19 01:12:39;;;;;;;10.55;3.08;;;;;;;;;;4973442;28;20199;-62
2023/07/19 01:15:08;;;;;;;8.10;2.42;;;16.30;99.90;;;;;;4973356;28;20169;-61
2023/07/19 01:17:35;;;;;;;12.68;2.85;;;16.60;99.90;;;;;;4972107;28;20218;-59
2023/07/19 01:20:02;;;;;;;12.75;3.17;;;;;;;;;;4973422;28;20172;-60
2023/07/19 01:22:35;;;;;;;9.48;2.80;;;16.20;99.90;;;;;;4973251;28;20307;-58
2023/07/19 01:25:01;;;;;;;9.27;2.88;;;16.30;99.90;;;;;;4973218;28;20227;-59
2023/07/19 01:27:26;;;;;;;8.23;2.80;;;16.40;99.90;;;;;;4973317;28;20176;-60
2023/07/19 01:29:52;;;;;;;11.82;3.15;;;16.50;99.90;;;;;;4972961;28;20175;-59
2023/07/19 01:32:18;;;;;;;8.82;2.58;;;16.30;99.90;;;;;;4973302;28;20179;-59
2023/07/19 01:34:44;;;;;;;10.50;2.85;;;16.30;99.90;;;;;;4973011;28;20164;-59
2023/07/19 01:37:09;;;;;;;11.57;3.05;;;16.40;99.90;;;;;;4973043;28;20176;-59
2023/07/19 01:39:35;;;;;;;13.13;3.08;;;16.40;99.90;;;;;;4972955;28;20175;-60
2023/07/19 01:42:00;;;;;;;11.20;2.92;;;16.40;99.90;;;;;;4972685;28;20247;-66
2023/07/19 01:44:27;;;;;;;10.38;2.65;;;16.40;99.90;;;;;;4972742;28;20258;-61
2023/07/19 01:46:52;;;;;;;8.85;2.72;;;16.40;99.90;;;;;;4972765;28;20227;-62
2023/07/19 01:49:18;;;;;;;8.93;2.60;;;16.00;99.90;;;;;;4972460;28;20333;-60
2023/07/19 01:51:44;;;;;;;9.93;2.67;;;;;;;;;;4971978;28;20187;-61
2023/07/19 01:54:10;;;;;;;9.75;2.92;;;;;;;;;;4972407;28;20704;-61
2023/07/19 01:56:37;;;;;;;14.20;3.08;;;16.40;99.90;;;;;;4972069;28;20243;-61
2023/07/19 01:59:03;;;;;;;6.07;2.40;;;;;;;;;;4972275;28;20184;-63
2023/07/19 02:01:28;;;;;;;9.27;2.70;;;16.40;99.90;;;;;;4970783;28;20218;-64
2023/07/19 02:03:54;;;;;;;11.57;3.17;;;16.40;99.90;;;;;;4970733;28;20541;-58
2023/07/19 02:06:20;;;;;;;13.77;2.83;;;;;;;;;;4972448;28;20176;-60
2023/07/19 02:08:45;;;;;;;11.13;3.13;;;16.40;99.90;;;;;;4972365;28;20172;-59
2023/07/19 02:11:11;;;;;;;7.20;2.47;;;16.40;99.90;;;;;;4972356;28;20190;-59
2023/07/19 02:13:37;;;;;;;8.48;2.95;;;16.40;99.90;;;;;;4972420;28;20179;-60
2023/07/19 02:16:03;;;;;;;14.43;3.17;;;16.30;99.90;;;;;;4972358;28;20274;-60
2023/07/19 02:18:28;;;;;;;12.75;2.97;;;16.30;99.90;;;;;;4972332;28;20216;-60
2023/07/19 02:20:55;;;;;;;13.15;3.45;;;16.40;99.90;;;;;;4972006;28;20176;-61
2023/07/19 02:23:21;;;;;;;14.00;3.03;;;16.40;99.90;;;;;;4972133;28;20677;-60
2023/07/19 02:25:48;;;;;;;10.23;2.72;;;16.40;99.90;;;;;;4985778;28;20270;-60
2023/07/19 02:28:14;;;;;;;11.23;3.25;;;16.20;99.90;;;;;;4991627;28;20183;-60
2023/07/19 02:30:44;;;;;;;13.77;3.38;;;16.40;99.90;;;;;;4991745;28;20278;-59
2023/07/19 02:33:12;;;;;;;14.70;3.83;;;16.40;99.90;;;;;;4991663;28;20171;-60
2023/07/19 02:35:38;;;;;;;12.13;3.25;;;16.40;99.90;;;;;;4991564;28;20193;-61
2023/07/19 02:38:04;;;;;;;17.48;3.63;;;16.40;99.90;;;;;;4991314;28;20654;-60
2023/07/19 02:40:30;;;;;;;14.93;3.92;;;16.50;99.90;;;;;;4991553;28;20270;-60
2023/07/19 02:42:55;;;;;;;14.57;3.63;;;16.50;99.90;;;;;;4991232;28;20708;-61
2023/07/19 02:45:23;;;;;;;16.23;3.70;;;16.50;99.90;;;;;;4990146;28;20221;-60
2023/07/19 02:47:49;;;;;;;16.15;4.05;;;16.50;99.90;;;;;;4991505;28;20195;-60
2023/07/19 02:50:14;;;;;;;14.82;3.30;;;16.50;99.90;;;;;;4991382;28;20949;-60
2023/07/19 02:52:40;;;;;;;13.25;3.05;;;16.60;99.90;;;;;;4991316;28;20179;-61
2023/07/19 02:55:06;;;;;;;9.98;2.88;;;16.60;99.90;;;;;;4991307;28;20167;-62
2023/07/19 02:57:31;;;;;;;9.45;2.92;;;16.60;99.90;;;;;;4981423;28;20201;-62
2023/07/19 02:59:57;;;;;;;9.95;3.08;;;16.60;99.90;;;;;;4968989;28;20195;-62
2023/07/19 03:02:23;;;;;;;14.20;3.30;;;;;;;;;;4955034;28;20228;-61
2023/07/19 03:04:49;;;;;;;10.70;2.50;;;16.80;99.90;;;;;;4968963;28;20172;-59
2023/07/19 03:07:14;;;;;;;10.00;3.53;;;16.60;99.90;;;;;;4973128;28;20596;-58
2023/07/19 03:09:40;;;;;;;12.13;3.65;;;16.60;99.90;;;;;;4975350;28;20203;-59
2023/07/19 03:12:06;;;;;;;14.45;3.20;;;16.60;99.90;;;;;;4975047;28;20323;-58
2023/07/19 03:14:32;;;;;;;14.95;3.55;;;16.60;99.90;;;;;;4975159;28;20650;-59
2023/07/19 03:16:57;;;;;;;10.82;3.05;;;16.60;99.90;;;;;;4975643;28;20172;-60
2023/07/19 03:19:23;;;;;;;13.32;3.40;;;16.60;99.90;;;;;;4973682;28;20660;-60
2023/07/19 03:21:48;;;;;;;11.52;3.40;;;16.70;99.90;;;;;;4974992;28;20219;-59
2023/07/19 03:24:14;;;;;;;13.60;3.80;;;16.60;99.90;;;;;;4974763;28;20757;-60
2023/07/19 03:26:40;;;;;;;12.48;3.55;;;;;;;;;;4974378;28;20270;-60
2023/07/19 03:29:05;;;;;;;11.23;3.22;;;16.60;99.90;;;;;;4974170;28;20175;-60
2023/07/19 03:31:31;;;;;;;10.60;3.22;;;;;;;;;;4974775;28;20681;-59
2023/07/19 03:33:57;;;;;;;17.60;3.65;;;16.60;99.90;;;;;;4974208;28;20227;-60
2023/07/19 03:36:23;;;;;;;14.05;3.75;;;16.60;99.90;;;;;;4974477;28;20681;-59
2023/07/19 03:38:49;;;;;;;14.73;3.67;;;16.60;99.90;;;;;;4974552;28;20191;-59
2023/07/19 03:41:15;;;;;;;9.68;4.13;;;16.60;99.90;;;;;;4974468;28;20203;-59
2023/07/19 03:43:41;;;;;;;11.95;4.22;;;;;;;;;;4974781;28;20299;-60
2023/07/19 03:46:08;;;;;;;14.15;4.90;;;16.30;99.90;;;;;;4974585;28;20270;-59
2023/07/19 03:48:35;;;;;;;16.00;4.32;;;16.50;99.90;;;;;;4974348;28;20180;-59
2023/07/19 03:51:01;;;;;;;12.10;4.75;;;15.80;99.90;;;;;;4974900;28;20238;-60
2023/07/19 03:53:28;;;;;;;13.93;4.85;;;16.20;99.90;;;;;;4974419;28;20175;-60
2023/07/19 03:55:55;;;;;;;17.67;5.53;;;16.20;99.90;;;;;;4974883;28;20172;-59
2023/07/19 03:58:23;;;;;;;12.88;4.97;;;16.20;99.90;;;;;;4974839;28;20176;-59
2023/07/19 04:00:49;;;;;;;16.65;5.03;;;16.10;99.90;;;;;;4974526;28;20206;-59
2023/07/19 04:03:15;;;;;;;14.18;5.20;;;;;;;;;;4974336;28;20545;-61
2023/07/19 04:05:40;;;;;;;14.27;5.45;;;16.10;99.90;;;;;;4972914;28;20180;-60
2023/07/19 04:08:06;;;;;;;14.85;5.78;;;;;;;;;;4974527;28;20707;-61
2023/07/19 04:10:32;;;;;;;13.82;5.35;;;16.20;99.90;;;;;;4974133;28;20195;-60
2023/07/19 04:12:57;;;;;;;16.00;6.15;;;16.20;99.90;;;;;;4974642;28;20337;-62
2023/07/19 04:15:23;;;;;;;13.95;6.35;;;16.10;99.90;;;;;;4973936;28;20666;-62
2023/07/19 04:17:48;;;;;;;15.85;6.63;;;16.10;99.90;;;;;;4973784;28;20231;-61
2023/07/19 04:20:14;;;;;;;16.40;6.85;;;16.10;99.90;;;;;;4973627;28;20656;-61
2023/07/19 04:22:40;;;;;;;14.50;6.70;;;16.20;99.90;;;;;;4974237;28;20266;-62
2023/07/19 04:25:06;;;;;;;18.27;6.30;;;16.20;99.90;;;;;;4974284;28;20176;-60
2023/07/19 04:27:32;;;;;;;20.08;7.10;;;16.20;99.90;;;;;;4974225;28;20180;-62
2023/07/19 04:29:58;;;;;;;21.77;6.80;;;16.30;99.90;;;;;;4974493;28;20603;-60
2023/07/19 04:32:24;;;;;;;14.95;5.85;;;16.30;99.90;;;;;;4974033;28;20655;-61
2023/07/19 04:34:53;;;;;;;18.70;7.15;;;16.30;99.90;;;;;;4974100;28;20196;-62
2023/07/19 04:37:19;;;;;;;18.42;6.45;;;;;;;;;;4973917;28;20191;-62
2023/07/19 04:39:44;;;;;;;19.77;5.70;;;16.10;99.90;;;;;;4974159;28;20635;-61
2023/07/19 04:42:10;;;;;;;13.90;6.30;;;16.30;99.90;;;;;;4973947;28;20298;-61
2023/07/19 04:44:38;;;;;;;15.73;6.90;;;16.40;99.90;;;;;;4974045;28;20268;-61
2023/07/19 04:47:04;;;;;;;15.48;5.78;;;16.50;99.90;;;;;;4973640;28;20227;-61
2023/07/19 04:49:30;;;;;;;14.82;5.80;;;16.40;99.90;;;;;;4973931;28;20175;-61
2023/07/19 04:51:56;;;;;;;14.38;5.93;;;16.40;99.90;;;;;;4968651;28;20179;-61
2023/07/19 04:54:22;;;;;;;16.75;6.22;;;16.40;99.90;;;;;;4973877;28;20172;-62
2023/07/19 04:56:47;;;;;;;14.30;5.68;;;16.00;99.90;;;;;;4973741;28;20183;-60
2023/07/19 04:59:13;;;;;;;20.33;6.13;;;16.40;99.90;;;;;;4973651;28;20176;-62
2023/07/19 05:01:38;;;;;;;15.70;6.40;;;16.40;99.90;;;;;;4973555;28;20748;-62
2023/07/19 05:04:05;;;;;;;17.90;5.72;;;;;;;;;;4973498;28;20170;-61
2023/07/19 05:06:31;;;;;;;21.42;6.30;;;16.40;99.90;;;;;;4973293;28;20217;-62
2023/07/19 05:08:57;;;;;;;12.95;6.28;;;16.40;99.90;;;;;;4973517;28;20176;-62
2023/07/19 05:11:25;;;;;;;12.43;6.20;;;16.30;99.90;;;;;;4973407;28;20179;-61
2023/07/19 05:13:51;;;;;;;15.85;6.40;;;16.40;99.90;;;;;;4973376;28;20179;-61
2023/07/19 05:16:16;;;;;;;15.18;6.10;;;16.40;99.90;;;;;;4973554;28;20195;-61
2023/07/19 05:18:42;;;;;;;17.77;7.22;;;16.50;99.90;;;;;;4973359;28;20639;-61
2023/07/19 05:21:08;;;;;;;22.48;7.22;;;16.60;99.90;;;;;;4973145;28;20172;-61
2023/07/19 05:23:33;;;;;;;18.80;7.15;;;16.60;99.90;;;;;;4972341;28;20176;-59
2023/07/19 05:25:59;;;;;;;12.70;6.18;;;16.70;99.90;;;;;;4972775;28;20176;-60
2023/07/19 05:28:25;;;;;;;19.33;5.93;;;16.70;99.90;;;;;;4973041;28;20230;-60
2023/07/19 05:30:50;;;;;;;12.88;5.93;;;16.40;99.90;;;;;;4971998;28;20535;-60
2023/07/19 05:33:16;;;;;;;13.25;5.80;;;16.40;99.90;;;;;;4972955;28;20255;-60
2023/07/19 05:35:42;;;;;;;15.52;6.07;;;16.60;99.90;;;;;;4972964;28;20637;-61
2023/07/19 05:38:08;;;;;;;14.43;5.82;;;16.60;99.90;;;;;;4972883;28;20666;-61
2023/07/19 05:40:34;;;;;;;14.73;5.88;;;16.70;99.90;;;;;;4972998;28;20179;-60
2023/07/19 05:42:59;;;;;;;7.72;4.43;;;16.70;99.90;;;;;;4972707;28;20215;-60
2023/07/19 05:45:25;;;;;;;10.48;4.43;;;16.70;99.90;;;;;;4972646;28;20518;-60
2023/07/19 05:47:50;;;;;;;12.13;4.20;;;16.70;99.90;;;;;;4972783;28;20182;-61
2023/07/19 05:50:16;;;;;;;11.93;3.83;;;16.80;99.90;;;;;;4972736;28;20182;-61
2023/07/19 05:52:42;;;;;;;9.80;4.22;;;16.90;99.90;;;;;;4972965;28;20176;-62
2023/07/19 05:55:08;;;;;;;12.50;3.88;;;16.80;99.90;;;;;;4972780;28;20705;-63
2023/07/19 05:57:34;;;;;;;9.73;3.78;;;16.40;99.90;;;;;;4972743;28;20634;-63
2023/07/19 06:00:14;;;;;;;5.78;3.55;;;16.80;99.90;;;;;;4972602;28;20183;-63
2023/07/19 06:02:40;;;;;;;17.58;4.20;;;16.70;99.90;;;;;;4972285;28;20545;-62
2023/07/19 06:05:06;;;;;;;11.93;4.53;;;16.90;99.90;;;;;;4972272;28;20191;-63
2023/07/19 06:07:32;;;;;;;12.68;4.22;;;17.10;99.90;;;;;;4972626;28;20206;-63
2023/07/19 06:09:58;;;;;;;16.75;4.70;;;17.00;99.90;;;;;;4971107;28;20172;-62
2023/07/19 06:12:23;;;;;;;10.05;4.10;;;17.10;99.90;;;;;;4972386;28;20176;-62
2023/07/19 06:14:49;;;;;;;9.20;4.13;;;17.10;99.90;;;;;;4972260;28;20171;-62
2023/07/19 06:17:15;;;;;;;13.77;4.10;;;17.20;99.90;;;;;;4972086;28;20168;-63
2023/07/19 06:19:41;;;;;;;16.92;4.38;;;;;;;;;;4972585;28;20180;-63
2023/07/19 06:22:06;;;;;;;9.27;3.90;;;17.20;99.90;;;;;;4972102;28;20222;-60
2023/07/19 06:24:32;;;;;;;13.15;3.88;;;17.20;99.90;;;;;;4972115;28;20179;-66
2023/07/19 06:26:58;;;;;;;12.15;4.20;;;;;;;;;;4972126;28;20180;-66
2023/07/19 06:29:24;;;;;;;9.02;4.43;;;17.30;99.90;;;;;;4970974;28;20266;-67
2023/07/19 06:31:50;;;;;;;12.13;4.00;;;17.40;99.90;;;;;;4969729;28;20187;-67
2023/07/19 06:34:15;;;;;;;7.22;3.83;;;17.40;99.90;;;;;;4971185;28;20218;-66
2023/07/19 06:36:41;;;;;;;9.65;3.83;;;17.50;99.90;;;;;;4972001;28;20171;-67
2023/07/19 06:39:06;;;;;;;7.30;3.58;;;17.80;99.90;;;;;;4972166;28;20167;-67
2023/07/19 06:41:32;;;;;;;8.85;3.20;;;17.50;99.90;;;;;;4971567;28;20562;-67
2023/07/19 06:43:58;;;;;;;8.40;3.55;;;17.60;99.90;;;;;;4971794;28;20175;-67
2023/07/19 06:46:23;;;;;;;9.02;3.30;;;17.80;99.90;;;;;;4971149;28;20231;-68
2023/07/19 06:48:49;;;;;;;5.25;2.70;;;17.90;99.90;;;;;;4971312;28;20175;-63
2023/07/19 06:51:14;;;;;;;12.13;3.20;;;17.90;99.90;;;;;;4968891;28;20938;-67
2023/07/19 06:53:40;;;;;;;4.65;2.83;;;18.00;99.90;;;;;;4952918;28;20529;-67
2023/07/19 06:56:07;;;;;;;6.18;2.55;;;18.10;99.90;;;;;;4972128;28;20655;-65
2023/07/19 06:58:33;;;;;;;6.95;3.40;;;18.10;99.90;;;;;;4953037;28;20669;-66
2023/07/19 07:00:59;;;;;;;6.88;2.40;;;18.20;99.90;;;;;;4968289;28;20246;-65
2023/07/19 07:03:25;;;;;;;10.15;2.50;;;18.20;99.90;;;;;;4971544;28;20659;-67
2023/07/19 07:05:50;;;;;;;6.25;2.60;;;18.10;99.90;;;;;;4970501;28;20200;-66
2023/07/19 07:08:16;;;;;;;6.20;2.58;;;;;;;;;;4970091;28;20270;-66
2023/07/19 07:10:45;;;;;;;6.75;2.08;;;18.10;99.90;;;;;;4970267;28;20175;-65
2023/07/19 07:13:10;;;;;;;7.10;2.45;;;18.00;99.90;;;;;;4970908;28;20168;-66
2023/07/19 07:15:36;;;;;;;3.20;1.83;;;17.80;99.90;;;;;;4971578;28;20191;-66
2023/07/19 07:18:02;;;;;;;5.22;1.70;;;18.00;99.90;;;;;;4971869;28;20183;-66
2023/07/19 07:20:28;;;;;;;5.45;1.70;;;18.10;99.90;;;;;;4970984;28;20176;-66
2023/07/19 07:22:55;;;;;;;4.68;1.95;;;18.10;99.90;;;;;;4971517;28;20207;-66
2023/07/19 07:25:21;;;;;;;4.60;2.00;;;18.10;99.90;;;;;;4971548;28;20180;-67
2023/07/19 07:27:46;;;;;;;4.30;1.70;;;18.10;99.90;;;;;;4971560;28;20190;-68
2023/07/19 07:30:12;;;;;;;4.68;1.83;;;18.10;99.90;;;;;;4971607;28;20184;-67
2023/07/19 07:32:37;;;;;;;3.65;1.25;;;18.10;99.90;;;;;;4963593;28;20177;-66
2023/07/19 07:35:06;;;;;;;4.25;1.40;;;18.10;99.90;;;;;;4964209;28;20580;-62
2023/07/19 07:37:32;;;;;;;4.00;1.40;;;17.90;99.90;;;;;;4971400;28;20191;-66
2023/07/19 07:39:57;;;;;;;4.20;1.30;;;18.00;99.90;;;;;;4971371;28;20184;-68
2023/07/19 07:42:24;;;;;;;4.00;1.30;;;18.10;99.90;;;;;;4971207;28;20211;-68
2023/07/19 07:44:50;;;;;;;3.67;1.50;;;18.00;99.90;;;;;;4970708;28;20677;-64
2023/07/19 07:47:16;;;;;;;2.60;1.58;;;;;;;;;;4971177;28;20231;-64
2023/07/19 07:49:42;;;;;;;4.20;1.75;;;18.10;99.90;;;;;;4971010;28;20186;-64
2023/07/19 07:52:11;;;;;;;3.47;1.63;;;18.10;99.90;;;;;;4970955;28;20180;-63
2023/07/19 07:54:36;;;;;;;3.70;1.33;;;18.20;99.90;;;;;;4973564;28;20164;-64
2023/07/19 07:57:02;;;;;;;3.40;1.40;;;18.30;99.90;;;;;;4974296;28;20190;-64
2023/07/19 07:59:28;;;;;;;3.53;1.42;;;;;;;;;;4974312;28;20259;-63
2023/07/19 08:01:54;;;;;;;4.18;1.58;;;18.40;99.90;;;;;;4974527;28;20239;-64
2023/07/19 08:04:20;;;;;;;3.25;1.30;;;;;;;;;;4974242;28;20183;-61
2023/07/19 08:06:45;;;;;;;2.80;1.23;;;18.50;99.90;;;;;;4974495;28;20599;-60
2023/07/19 08:09:11;;;;;;;8.45;1.33;;;18.70;99.90;;;;;;4974549;28;20178;-60
2023/07/19 08:11:37;;;;;;;4.25;1.35;;;18.90;99.90;;;;;;4974466;28;20176;-61
2023/07/19 08:14:02;;;;;;;3.00;1.40;;;18.80;99.90;;;;;;4974549;28;20234;-60
2023/07/19 08:16:28;;;;;;;2.90;1.10;;;18.90;99.90;;;;;;4973134;28;20187;-59
2023/07/19 08:18:54;;;;;;;2.03;0.95;;;18.80;99.90;;;;;;4974211;28;20258;-60
2023/07/19 08:21:19;;;;;;;2.63;1.10;;;18.70;99.90;;;;;;4974168;28;20227;-61
2023/07/19 08:23:45;;;;;;;7.82;1.30;;;18.90;99.90;;;;;;4974486;28;20172;-60
2023/07/19 08:26:11;;;;;;;1.88;1.05;;;18.90;99.90;;;;;;4974415;28;20208;-65
2023/07/19 08:28:37;;;;;;;2.65;0.95;;;;;;;;;;4974182;28;20263;-65
2023/07/19 08:31:04;;;;;;;2.72;0.82;;;19.10;99.90;;;;;;4974274;28;20268;-65
2023/07/19 08:33:29;;;;;;;1.90;0.90;;;18.90;99.90;;;;;;4973721;28;20222;-65
2023/07/19 08:35:55;;;;;;;2.75;0.80;;;18.90;99.90;;;;;;4972793;28;20648;-65
2023/07/19 08:38:20;;;;;;;3.47;1.13;;;18.90;99.90;;;;;;4973835;28;20191;-64
2023/07/19 08:41:01;;;;;;;2.15;0.90;;;19.00;99.90;;;;;;4973685;28;20214;-65
2023/07/19 08:43:29;;;;;;;2.88;0.80;;;18.90;99.90;;;;;;4972438;28;20753;-66
2023/07/19 08:45:55;;;;;;;7.57;1.08;;;19.20;99.90;;;;;;4973552;28;20223;-65
2023/07/19 08:48:21;;;;;;;3.13;0.90;;;19.50;99.90;;;;;;4973938;28;20175;-66
2023/07/19 08:50:58;;;;;;;3.60;0.90;;;19.50;99.90;;;;;;4973931;28;20168;-65
2023/07/19 08:53:24;;;;;;;1.40;0.85;;;19.50;99.90;;;;;;4973689;28;20179;-65
2023/07/19 08:55:51;;;;;;;2.95;0.80;;;19.50;99.90;;;;;;4972696;28;20203;-65
2023/07/19 08:58:17;;;;;;;2.03;0.77;;;19.40;99.90;;;;;;4973745;28;20183;-64
2023/07/19 09:00:45;;;;;;;2.85;0.80;;;19.20;99.90;;;;;;4973671;28;20168;-65
2023/07/19 09:03:11;;;;;;;5.80;0.90;;;19.30;99.90;;;;;;4973527;28;20307;-65
2023/07/19 09:05:38;;;;;;;0.90;0.60;;;19.30;99.90;;;;;;4973735;28;20648;-64
2023/07/19 09:08:04;;;;;;;2.17;0.50;;;;;;;;;;4973551;28;20204;-65
2023/07/19 09:10:30;;;;;;;6.43;1.10;;;19.00;99.90;;;;;;4972351;28;20203;-65
2023/07/19 09:12:57;;;;;;;2.97;0.90;;;19.40;99.90;;;;;;4972662;28;20203;-64
2023/07/19 09:15:22;;;;;;;2.47;0.60;;;19.40;99.90;;;;;;4973311;28;20183;-65
2023/07/19 09:17:49;;;;;;;2.00;0.80;;;19.80;99.90;;;;;;4971479;28;20176;-65
2023/07/19 09:20:20;;;;;;;3.15;0.85;;;19.90;99.90;;;;;;4972376;28;20643;-65
2023/07/19 09:22:45;;;;;;;3.58;0.80;;;19.90;99.90;;;;;;4972596;28;20215;-65
2023/07/19 09:25:12;;;;;;;3.95;1.00;;;20.30;99.90;;;;;;4972258;28;20226;-64
2023/07/19 09:27:40;;;;;;;1.98;0.82;;;20.00;99.90;;;;;;4971196;28;20709;-62
2023/07/19 09:30:11;;;;;;;3.58;0.63;;;20.30;99.90;;;;;;4970996;28;20180;-66
2023/07/19 09:32:37;;;;;;;1.10;0.55;;;20.30;99.90;;;;;;4970053;28;20659;-65
2023/07/19 09:35:07;;;;;;;1.58;0.75;;;20.20;99.90;;;;;;4970373;28;20195;-65
2023/07/19 09:37:33;;;;;;;1.40;0.70;;;21.30;99.90;;;;;;4970740;28;20343;-64
2023/07/19 09:40:01;;;;;;;1.48;0.50;;;20.60;1.00;;;;;;4969770;28;20675;-66
2023/07/19 09:42:29;;;;;;;2.10;0.60;;;20.50;1.00;;;;;;4972230;28;20234;-66
2023/07/19 09:44:55;;;;;;;2.75;0.50;;;21.30;1.00;;;;;;4971494;28;20184;-65
2023/07/19 09:47:24;;;;;;;4.05;0.73;;;21.00;1.00;;;;;;4972221;28;20270;-66
2023/07/19 09:49:50;;;;;;;4.32;1.13;;;20.90;1.00;;;;;;4972757;28;20179;-66
2023/07/19 09:52:17;;;;;;;3.65;0.70;;;20.90;1.00;;;;;;4971485;28;20526;-65
2023/07/19 09:54:44;;;;;;;5.30;0.85;;;20.90;99.90;;;;;;4972651;28;20259;-65
2023/07/19 09:57:11;;;;;;;4.65;0.65;;;20.90;99.90;;;;;;4971599;28;20579;-65
2023/07/19 09:59:41;;;;;;;1.27;0.30;;;20.90;99.90;;;;;;4971681;28;20199;-65
2023/07/19 10:02:07;;;;;;;2.63;0.60;;;20.90;99.90;;;;;;4969580;28;20553;-65
2023/07/19 10:04:38;;;;;;;5.28;1.20;;;21.00;10.60;;;;;;4972315;28;20172;-64
2023/07/19 10:07:24;;;;;;;1.95;0.35;;;21.30;1.00;;;;;;4963957;28;20279;-65
2023/07/19 10:10:00;;;;;;;1.40;0.60;;;22.00;7.20;;;;;;4972410;28;20179;-65
2023/07/19 10:12:26;;;;;;;2.85;0.40;;;22.20;1.00;;;;;;4955173;28;20231;-65
2023/07/19 10:14:54;;;;;;;1.95;0.63;;;22.10;1.00;;;;;;4969431;28;20274;-65
2023/07/19 10:17:20;;;;;;;3.45;0.30;;;22.00;1.00;;;;;;4964701;28;20181;-65
2023/07/19 10:20:14;;;;;;;1.45;0.60;;;22.10;1.00;;;;;;4953138;28;20187;-64
2023/07/19 10:22:58;;;;;;;2.53;0.43;;;22.30;1.00;;;;;;4968415;28;20207;-64
2023/07/19 10:25:38;;;;;;;0.80;0.50;;;22.80;1.00;;;;;;4966466;28;20219;-65
2023/07/19 10:28:11;;;;;;;4.78;0.60;;;23.60;1.00;;;;;;4972171;28;20190;-65
2023/07/19 10:30:49;;;;;;;6.00;0.50;;;23.60;99.90;;;;;;4971570;28;20225;-65
2023/07/19 10:33:23;;;;;;;9.95;0.82;;;22.90;99.90;;;;;;4971604;28;20194;-65
2023/07/19 10:36:04;;;;;;;1.73;0.40;;;22.90;99.90;;;;;;4971375;28;20171;-66
2023/07/19 10:38:30;;;;;;;3.38;0.50;;;;;;;;;;4971063;28;20187;-65
2023/07/19 10:40:56;;;;;;;3.92;0.45;;;22.80;99.90;;;;;;4972026;28;20168;-64
2023/07/19 10:43:27;;;;;;;1.55;0.40;;;22.80;99.90;;;;;;4971502;28;20239;-66
2023/07/19 10:45:54;;;;;;;2.60;0.30;;;22.70;1.00;;;;;;4971246;28;20295;-66
2023/07/19 10:48:32;;;;;;;1.02;0.30;;;23.30;1.00;;;;;;4971935;28;20168;-65
2023/07/19 10:51:05;;;;;;;2.67;0.32;;;22.80;1.00;;;;;;4971914;28;20181;-65
2023/07/19 10:53:46;;;;;;;0.82;0.47;;;22.60;99.90;;;;;;4971988;28;20178;-65
2023/07/19 10:56:13;;;;;;;0.80;0.40;;;22.60;1.00;;;;;;4971332;28;20262;-66
2023/07/19 10:58:39;;;;;;;0.95;0.40;;;23.40;1.00;;;;;;4970830;28;20663;-66
2023/07/19 11:01:06;;;;;;;1.20;0.40;;;24.00;1.00;;;;;;4970393;28;20278;-65
2023/07/19 11:03:32;;;;;;;1.30;0.50;;;24.10;1.00;;;;;;4971833;28;20175;-65
2023/07/19 11:05:58;;;;;;;3.40;0.40;;;23.20;1.00;;;;;;4970994;28;20175;-65
2023/07/19 11:08:26;;;;;;;0.57;0.30;;;23.30;1.00;;;;;;4971782;28;20259;-65
2023/07/19 11:10:54;;;;;;;0.98;0.40;;;23.60;1.00;;;;;;4971583;28;20172;-65
2023/07/19 11:13:22;;;;;;;1.55;0.35;;;23.80;1.00;;;;;;4971688;28;20216;-66
2023/07/19 11:15:50;;;;;;;3.50;0.40;;;24.10;99.90;;;;;;4970416;28;20227;-65
2023/07/19 11:18:37;;;;;;;4.00;0.32;;;25.00;99.90;;;;;;4971622;28;20184;-66
2023/07/19 11:21:04;;;;;;;1.60;0.40;;;25.40;1.00;;;;;;4971420;28;20176;-66
2023/07/19 11:23:30;;;;;;;1.02;0.38;;;25.10;1.00;;;;;;4971082;28;20183;-65
2023/07/19 11:26:06;;;;;;;1.30;0.40;;;26.40;1.00;;;;;;4971654;28;20195;-65
2023/07/19 11:28:35;;;;;;;1.00;0.50;;;25.70;99.90;;;;;;4973800;28;20721;-65
2023/07/19 11:31:02;;;;;;;1.30;0.40;;;25.20;99.90;;;;;;4975301;28;20263;-64
2023/07/19 11:33:28;;;;;;;1.30;0.75;;;24.80;1.00;;;;;;4975021;28;20164;-66
2023/07/19 11:35:54;;;;;;;2.10;0.90;;;;;;;;;;4974969;28;20175;-66
2023/07/19 11:38:20;;;;;;;4.40;0.70;;;24.60;1.00;;;;;;4972799;28;20268;-65
2023/07/19 11:40:45;;;;;;;3.92;0.60;;;25.00;1.00;;;;;;4974849;28;20262;-65
2023/07/19 11:43:11;;;;;;;0.63;0.50;;;25.40;1.00;;;;;;4975178;28;20211;-66
2023/07/19 11:45:37;;;;;;;1.48;0.60;;;26.00;1.00;;;;;;4974838;28;20695;-66
2023/07/19 11:48:03;;;;;;;1.83;0.70;;;25.30;1.00;;;;;;4975077;28;20175;-65
2023/07/19 11:50:29;;;;;;;2.00;0.50;;;24.70;1.00;;;;;;4975032;28;20266;-65
2023/07/19 11:53:01;;;;;;;1.65;0.63;;;24.70;1.00;;;;;;4973818;28;20246;-65
2023/07/19 11:55:29;;;;;;;2.05;0.73;;;24.60;1.00;;;;;;4975078;28;20180;-65
2023/07/19 11:58:02;;;;;;;4.55;0.90;;;24.40;1.00;;;;;;4974741;28;20180;-65
2023/07/19 12:00:28;;;;;;;0.82;0.45;;;;;;;;;;4974770;28;20171;-65
2023/07/19 12:02:54;;;;;;;3.92;0.60;;;23.70;1.00;;;;;;4974553;28;20578;-71
2023/07/19 12:05:23;;;;;;;1.10;0.60;;;23.50;1.00;;;;;;4974176;28;20171;-66
2023/07/19 12:07:50;;;;;;;4.78;1.85;;;23.20;1.00;;;;;;4974766;28;20536;-67
2023/07/19 12:10:17;;;;;;;3.65;0.80;;;;;;;;;;4973456;28;20183;-65
2023/07/19 12:12:44;;;;;;;1.42;0.68;;;22.80;99.90;;;;;;4974076;28;20219;-67
2023/07/19 12:15:11;;;;;;;2.15;0.52;;;23.10;1.00;;;;;;4974407;28;20211;-66
2023/07/19 12:17:37;;;;;;;2.28;0.60;;;23.10;1.00;;;;;;4974513;28;20168;-66
2023/07/19 12:20:05;;;;;;;5.47;0.52;;;22.20;99.90;;;;;;4974519;28;20259;-67
2023/07/19 12:22:32;;;;;;;4.03;0.60;;;21.90;1.00;;;;;;4974047;28;20283;-67
2023/07/19 12:24:58;;;;;;;3.67;0.60;;;21.80;99.90;;;;;;4973042;28;20180;-66
2023/07/19 12:27:25;;;;;;;5.72;0.68;;;21.30;1.00;;;;;;4973541;28;20399;-67
2023/07/19 12:29:50;;;;;;;4.25;0.55;;;21.60;1.00;;;;;;4973967;28;20180;-66
2023/07/19 12:32:16;;;;;;;4.50;0.70;;;21.70;1.00;;;;;;4974187;28;20639;-66
2023/07/19 12:34:44;;;;;;;4.75;0.80;;;21.90;1.00;;;;;;4973810;28;20698;-66
2023/07/19 12:37:10;;;;;;;3.03;0.60;;;22.90;1.00;;;;;;4973875;28;20222;-66
2023/07/19 12:39:36;;;;;;;1.95;0.50;;;24.30;1.00;;;;;;4972690;28;20302;-66
2023/07/19 12:42:02;;;;;;;2.53;0.70;;;24.30;1.00;;;;;;4974060;28;20222;-66
2023/07/19 12:44:28;;;;;;;2.55;0.50;;;;;;;;;;4974065;28;20168;-65
2023/07/19 12:46:53;;;;;;;3.03;0.60;;;22.80;47.10;;;;;;4973840;28;20278;-66
2023/07/19 12:49:22;;;;;;;2.50;0.70;;;22.80;1.00;;;;;;4973982;28;20172;-67
2023/07/19 12:51:48;;;;;;;5.25;0.70;;;21.90;1.00;;;;;;4972920;28;20238;-66
2023/07/19 12:54:14;;;;;;;6.13;0.95;;;21.90;99.90;;;;;;4973792;28;20658;-66